createdAt,value
2022-10-31T00:00:15.853Z,50.00
2022-10-31T00:01:20.886Z,50.02
2022-10-31T00:02:22.524Z,50.01
2022-10-31T00:03:24.339Z,50.22
2022-10-31T00:04:25.945Z,50.21
2022-10-31T00:05:27.453Z,49.92
2022-10-31T00:06:29.095Z,49.88
2022-10-31T00:07:30.648Z,50.04
2022-10-31T00:08:32.292Z,50.13
2022-10-31T00:09:33.806Z,49.92
2022-10-31T00:10:38.733Z,50.06
2022-10-31T00:11:40.300Z,49.66
2022-10-31T00:12:41.864Z,49.77
2022-10-31T00:13:43.389Z,49.91
2022-10-31T00:14:44.893Z,49.56
2022-10-31T00:15:46.472Z,49.70
2022-10-31T00:16:48.114Z,49.49
2022-10-31T00:17:49.677Z,49.62
2022-10-31T00:18:52.985Z,49.79
2022-10-31T00:19:54.528Z,49.63
2022-10-31T00:21:03.292Z,49.58
2022-10-31T00:22:04.900Z,49.81
2022-10-31T00:23:07.478Z,49.46
2022-10-31T00:24:09.179Z,49.60
2022-10-31T00:25:10.854Z,49.67
2022-10-31T00:26:12.388Z,49.34
2022-10-31T00:27:13.959Z,49.69
2022-10-31T00:28:15.583Z,49.32
2022-10-31T00:29:17.145Z,49.46
2022-10-31T00:30:18.755Z,49.26
2022-10-31T00:31:20.500Z,49.50
2022-10-31T00:32:22.030Z,49.63
2022-10-31T00:33:23.573Z,49.60
2022-10-31T00:34:25.114Z,49.35
2022-10-31T00:35:26.633Z,49.50
2022-10-31T00:36:28.215Z,49.33
2022-10-31T00:37:29.750Z,49.08
2022-10-31T00:38:31.952Z,49.22
2022-10-31T00:39:33.486Z,49.03
2022-10-31T00:40:35.056Z,49.36
2022-10-31T00:41:36.634Z,49.06
2022-10-31T00:42:38.156Z,49.22
2022-10-31T00:43:39.778Z,49.37
2022-10-31T00:44:41.292Z,49.29
2022-10-31T00:45:43.759Z,49.09
2022-10-31T00:46:45.265Z,49.26
2022-10-31T00:47:46.803Z,49.25
2022-10-31T00:48:48.368Z,49.31
2022-10-31T00:49:49.879Z,49.34
2022-10-31T00:50:51.454Z,49.04
2022-10-31T00:51:53.126Z,48.92
2022-10-31T00:52:54.699Z,49.20
2022-10-31T00:53:56.268Z,48.89
2022-10-31T00:54:57.863Z,49.27
2022-10-31T00:55:59.436Z,48.91
2022-10-31T00:57:01.055Z,49.06
2022-10-31T00:58:03.182Z,48.88
2022-10-31T00:59:05.183Z,48.96
2022-10-31T01:00:07.336Z,49.22
2022-10-31T01:01:09.097Z,49.17
2022-10-31T01:02:10.995Z,49.14
2022-10-31T01:03:12.619Z,48.84
2022-10-31T01:04:14.209Z,48.99
2022-10-31T01:05:15.803Z,49.08
2022-10-31T01:06:17.385Z,49.09
2022-10-31T01:07:18.956Z,49.12
2022-10-31T01:08:20.510Z,49.14
2022-10-31T01:09:22.022Z,48.79
2022-10-31T01:10:23.831Z,48.96
2022-10-31T01:11:25.341Z,48.82
2022-10-31T01:12:26.874Z,48.89
2022-10-31T01:13:28.396Z,49.10
2022-10-31T01:14:30.100Z,48.92
2022-10-31T01:15:31.632Z,48.83
2022-10-31T01:16:33.157Z,49.10
2022-10-31T01:17:35.013Z,48.90
2022-10-31T01:18:36.890Z,49.06
2022-10-31T01:19:38.612Z,48.78
2022-10-31T01:20:40.161Z,48.74
2022-10-31T01:21:41.759Z,48.93
2022-10-31T01:22:43.281Z,49.01
2022-10-31T01:23:45.033Z,48.74
2022-10-31T01:24:46.612Z,48.82
2022-10-31T01:25:48.126Z,48.79
2022-10-31T01:26:49.659Z,48.71
2022-10-31T01:27:51.313Z,48.93
2022-10-31T01:29:07.528Z,48.63
2022-10-31T01:30:09.503Z,48.84
2022-10-31T01:31:11.209Z,48.70
2022-10-31T01:32:12.787Z,48.59
2022-10-31T01:33:14.345Z,48.59
2022-10-31T01:34:17.751Z,48.81
2022-10-31T01:35:19.249Z,48.62
2022-10-31T01:36:32.885Z,48.72
2022-10-31T01:37:34.455Z,49.01
2022-10-31T01:38:35.974Z,48.59
2022-10-31T01:39:37.779Z,48.53
2022-10-31T01:40:39.293Z,48.87
2022-10-31T01:41:52.577Z,48.54
2022-10-31T01:42:54.127Z,48.50
2022-10-31T01:44:01.636Z,48.58
2022-10-31T01:45:04.189Z,48.90
2022-10-31T01:46:05.761Z,48.50
2022-10-31T01:47:20.377Z,48.63
2022-10-31T01:48:28.094Z,48.58
2022-10-31T01:49:46.843Z,48.75
2022-10-31T01:50:51.624Z,48.65
2022-10-31T01:51:59.821Z,48.69
2022-10-31T01:53:02.889Z,48.70
2022-10-31T01:54:10.726Z,48.93
2022-10-31T01:55:14.075Z,48.87
2022-10-31T01:56:18.343Z,48.53
2022-10-31T01:57:22.278Z,48.88
2022-10-31T01:58:27.094Z,48.61
2022-10-31T01:59:31.728Z,48.56
2022-10-31T02:00:33.411Z,48.66
2022-10-31T02:01:35.334Z,48.74
2022-10-31T02:02:37.443Z,48.91
2022-10-31T02:03:39.231Z,48.50
2022-10-31T02:04:41.220Z,48.83
2022-10-31T02:05:44.040Z,48.56
2022-10-31T02:06:54.382Z,48.47
2022-10-31T02:08:01.991Z,48.82
2022-10-31T02:09:05.639Z,48.56
2022-10-31T02:10:07.902Z,48.62
2022-10-31T02:11:10.166Z,48.56
2022-10-31T02:12:13.037Z,48.60
2022-10-31T02:13:14.955Z,48.61
2022-10-31T02:14:16.705Z,48.48
2022-10-31T02:15:18.247Z,48.53
2022-10-31T02:16:19.855Z,48.50
2022-10-31T02:17:21.494Z,48.83
2022-10-31T02:18:25.378Z,48.59
2022-10-31T02:19:42.076Z,48.83
2022-10-31T02:20:55.417Z,48.81
2022-10-31T02:22:21.300Z,48.84
2022-10-31T02:23:50.373Z,48.49
2022-10-31T02:24:59.272Z,48.73
2022-10-31T02:26:33.147Z,48.42
2022-10-31T02:28:13.473Z,48.74
2022-10-31T02:29:48.974Z,48.76
2022-10-31T02:31:12.226Z,48.38
2022-10-31T02:32:28.104Z,48.46
2022-10-31T02:33:53.416Z,48.53
2022-10-31T02:35:33.980Z,48.53
2022-10-31T02:36:35.467Z,48.78
2022-10-31T02:38:02.076Z,48.87
2022-10-31T02:39:24.522Z,48.44
2022-10-31T02:40:31.556Z,48.54
2022-10-31T02:41:46.213Z,48.62
2022-10-31T02:42:54.541Z,48.50
2022-10-31T02:44:17.384Z,48.56
2022-10-31T02:45:27.437Z,48.62
2022-10-31T02:47:03.434Z,48.97
2022-10-31T02:48:11.993Z,48.43
2022-10-31T02:49:21.826Z,48.64
2022-10-31T02:50:36.368Z,48.60
2022-10-31T02:51:39.676Z,48.68
2022-10-31T02:52:41.299Z,48.45
2022-10-31T02:53:42.852Z,48.43
2022-10-31T02:54:46.524Z,48.36
2022-10-31T02:56:01.189Z,48.44
2022-10-31T02:57:08.166Z,48.52
2022-10-31T02:58:15.332Z,48.59
2022-10-31T02:59:17.469Z,48.66
2022-10-31T03:00:19.024Z,48.57
2022-10-31T03:01:20.624Z,48.76
2022-10-31T03:02:41.456Z,48.55
2022-10-31T03:04:04.085Z,48.44
2022-10-31T03:05:17.701Z,48.58
2022-10-31T03:06:31.829Z,48.41
2022-10-31T03:07:39.604Z,48.56
2022-10-31T03:08:56.073Z,48.65
2022-10-31T03:10:11.580Z,48.50
2022-10-31T03:11:13.162Z,48.23
2022-10-31T03:12:31.132Z,48.52
2022-10-31T03:13:53.648Z,48.71
2022-10-31T03:15:00.422Z,48.35
2022-10-31T03:16:46.425Z,48.41
2022-10-31T03:17:47.935Z,48.24
2022-10-31T03:19:03.446Z,48.30
2022-10-31T03:20:09.430Z,48.21
2022-10-31T03:21:13.853Z,48.43
2022-10-31T03:22:29.016Z,48.35
2022-10-31T03:23:33.016Z,48.31
2022-10-31T03:24:39.370Z,48.52
2022-10-31T03:25:42.833Z,48.40
2022-10-31T03:26:50.197Z,48.38
2022-10-31T03:27:53.073Z,48.43
2022-10-31T03:29:05.744Z,48.31
2022-10-31T03:30:08.894Z,48.37
2022-10-31T03:31:14.605Z,48.46
2022-10-31T03:32:45.123Z,48.42
2022-10-31T03:33:48.576Z,48.40
2022-10-31T03:34:54.368Z,48.50
2022-10-31T03:35:58.775Z,48.26
2022-10-31T03:37:04.809Z,48.69
2022-10-31T03:38:08.029Z,48.60
2022-10-31T03:39:14.144Z,48.29
2022-10-31T03:40:17.563Z,48.23
2022-10-31T03:41:27.013Z,48.43
2022-10-31T03:42:32.519Z,48.42
2022-10-31T03:43:42.804Z,48.17
2022-10-31T03:45:06.928Z,48.30
2022-10-31T03:46:08.729Z,48.29
2022-10-31T03:47:10.398Z,48.43
2022-10-31T03:48:13.661Z,48.35
2022-10-31T03:49:16.220Z,48.60
2022-10-31T03:50:18.213Z,48.52
2022-10-31T03:51:31.372Z,48.38
2022-10-31T03:52:38.737Z,48.23
2022-10-31T03:53:49.270Z,48.49
2022-10-31T03:54:59.119Z,48.58
2022-10-31T03:56:18.082Z,48.54
2022-10-31T03:57:39.847Z,48.22
2022-10-31T03:58:49.793Z,48.37
2022-10-31T04:00:03.163Z,48.27
2022-10-31T04:01:07.693Z,48.50
2022-10-31T04:02:18.243Z,48.54
2022-10-31T04:03:22.915Z,48.55
2022-10-31T04:04:26.533Z,48.39
2022-10-31T04:05:30.549Z,48.61
2022-10-31T04:06:35.019Z,48.41
2022-10-31T04:07:42.660Z,48.33
2022-10-31T04:08:57.153Z,48.25
2022-10-31T04:10:01.747Z,48.61
2022-10-31T04:11:05.692Z,48.31
2022-10-31T04:12:11.343Z,48.34
2022-10-31T04:14:24.657Z,48.44
2022-10-31T04:15:28.462Z,48.53
2022-10-31T04:16:30.096Z,48.30
2022-10-31T04:17:35.357Z,48.60
2022-10-31T04:18:37.005Z,48.64
2022-10-31T04:19:38.561Z,48.66
2022-10-31T04:20:42.624Z,48.49
2022-10-31T04:21:46.749Z,48.62
2022-10-31T04:22:48.295Z,48.50
2022-10-31T04:23:49.842Z,48.69
2022-10-31T04:24:51.347Z,48.63
2022-10-31T04:25:53.049Z,48.70
2022-10-31T04:26:54.545Z,48.56
2022-10-31T04:27:56.628Z,48.54
2022-10-31T04:28:58.367Z,48.48
2022-10-31T04:30:00.694Z,48.64
2022-10-31T04:31:02.266Z,48.39
2022-10-31T04:32:03.909Z,48.31
2022-10-31T04:33:05.437Z,48.67
2022-10-31T04:34:08.291Z,48.71
2022-10-31T04:35:09.799Z,48.58
2022-10-31T04:36:11.712Z,48.40
2022-10-31T04:37:13.247Z,48.61
2022-10-31T04:38:14.812Z,48.41
2022-10-31T04:39:16.356Z,48.46
2022-10-31T04:40:17.877Z,48.27
2022-10-31T04:41:19.425Z,48.41
2022-10-31T04:42:20.952Z,48.28
2022-10-31T04:43:22.586Z,48.52
2022-10-31T04:44:24.160Z,48.20
2022-10-31T04:45:26.009Z,48.41
2022-10-31T04:46:27.561Z,48.34
2022-10-31T04:47:32.866Z,48.20
2022-10-31T04:48:34.374Z,48.63
2022-10-31T04:49:35.919Z,48.37
2022-10-31T04:50:37.429Z,48.27
2022-10-31T04:51:38.951Z,48.56
2022-10-31T04:52:44.698Z,48.29
2022-10-31T04:53:46.284Z,48.27
2022-10-31T04:54:47.796Z,48.40
2022-10-31T04:55:49.395Z,48.25
2022-10-31T04:56:50.985Z,48.64
2022-10-31T04:57:52.503Z,48.33
2022-10-31T04:58:54.004Z,48.17
2022-10-31T04:59:55.558Z,48.33
2022-10-31T05:00:57.644Z,48.45
2022-10-31T05:01:59.307Z,48.33
2022-10-31T05:03:01.269Z,48.45
2022-10-31T05:04:03.236Z,48.26
2022-10-31T05:05:07.144Z,48.21
2022-10-31T05:06:08.959Z,48.54
2022-10-31T05:07:10.519Z,48.60
2022-10-31T05:08:12.116Z,48.38
2022-10-31T05:09:13.667Z,48.24
2022-10-31T05:10:20.681Z,48.56
2022-10-31T05:11:22.289Z,48.54
2022-10-31T05:12:23.847Z,48.50
2022-10-31T05:13:25.362Z,48.52
2022-10-31T05:14:26.880Z,48.46
2022-10-31T05:15:29.167Z,48.62
2022-10-31T05:16:30.765Z,48.44
2022-10-31T05:17:33.072Z,48.29
2022-10-31T05:18:34.574Z,48.54
2022-10-31T05:19:36.084Z,48.20
2022-10-31T05:20:37.865Z,48.38
2022-10-31T05:21:39.437Z,48.35
2022-10-31T05:22:48.987Z,48.62
2022-10-31T05:23:50.636Z,48.43
2022-10-31T05:24:52.140Z,48.36
2022-10-31T05:25:53.664Z,48.52
2022-10-31T05:26:55.192Z,48.38
2022-10-31T05:27:57.797Z,48.19
2022-10-31T05:28:59.546Z,48.52
2022-10-31T05:31:02.832Z,48.22
2022-10-31T05:32:04.407Z,48.46
2022-10-31T05:33:05.955Z,48.58
2022-10-31T05:34:07.500Z,48.55
2022-10-31T05:35:10.409Z,48.33
2022-10-31T05:36:11.988Z,48.19
2022-10-31T05:37:13.527Z,48.58
2022-10-31T05:38:15.066Z,48.49
2022-10-31T05:39:16.621Z,48.48
2022-10-31T05:40:20.157Z,48.21
2022-10-31T05:41:21.734Z,48.57
2022-10-31T05:42:23.257Z,48.46
2022-10-31T05:43:24.875Z,48.28
2022-10-31T05:44:26.507Z,48.21
2022-10-31T05:45:28.081Z,48.10
2022-10-31T05:46:29.753Z,48.37
2022-10-31T05:47:31.336Z,48.18
2022-10-31T05:48:32.884Z,48.36
2022-10-31T05:49:34.418Z,48.09
2022-10-31T05:50:35.972Z,48.16
2022-10-31T05:51:37.456Z,48.45
2022-10-31T05:52:39.011Z,48.57
2022-10-31T05:53:40.507Z,48.54
2022-10-31T05:54:42.039Z,48.47
2022-10-31T05:55:44.469Z,48.36
2022-10-31T05:56:46.052Z,48.07
2022-10-31T05:57:47.588Z,48.49
2022-10-31T05:58:49.106Z,48.14
2022-10-31T05:59:55.092Z,48.24
2022-10-31T06:00:56.921Z,48.20
2022-10-31T06:01:58.543Z,48.03
2022-10-31T06:03:01.742Z,48.46
2022-10-31T06:04:03.329Z,48.10
2022-10-31T06:05:05.283Z,48.38
2022-10-31T06:06:07.198Z,48.33
2022-10-31T06:07:08.828Z,48.00
2022-10-31T06:08:10.347Z,48.41
2022-10-31T06:09:11.982Z,48.18
2022-10-31T06:10:13.576Z,48.03
2022-10-31T06:11:15.121Z,48.05
2022-10-31T06:12:16.672Z,48.01
2022-10-31T06:13:18.211Z,48.07
2022-10-31T06:14:19.773Z,48.24
2022-10-31T06:15:24.327Z,48.16
2022-10-31T06:16:26.317Z,48.38
2022-10-31T06:17:27.849Z,48.29
2022-10-31T06:18:29.423Z,48.04
2022-10-31T06:19:30.932Z,48.20
2022-10-31T06:20:33.629Z,47.99
2022-10-31T06:21:35.160Z,48.06
2022-10-31T06:22:36.796Z,48.16
2022-10-31T06:23:38.324Z,48.25
2022-10-31T06:24:39.936Z,48.22
2022-10-31T06:25:41.503Z,48.17
2022-10-31T06:26:43.097Z,48.19
2022-10-31T06:27:44.634Z,47.99
2022-10-31T06:28:46.199Z,48.01
2022-10-31T06:29:47.960Z,48.06
2022-10-31T06:30:49.461Z,48.13
2022-10-31T06:31:54.006Z,48.30
2022-10-31T06:32:55.678Z,48.25
2022-10-31T06:33:57.551Z,48.29
2022-10-31T06:34:59.056Z,48.35
2022-10-31T06:36:00.576Z,48.25
2022-10-31T06:37:02.190Z,48.04
2022-10-31T06:38:04.057Z,48.09
2022-10-31T06:39:06.137Z,48.29
2022-10-31T06:40:08.124Z,48.10
2022-10-31T06:41:09.808Z,48.41
2022-10-31T06:42:11.489Z,48.09
2022-10-31T06:43:13.090Z,48.38
2022-10-31T06:44:15.063Z,48.27
2022-10-31T06:45:16.697Z,48.20
2022-10-31T06:46:18.281Z,48.18
2022-10-31T06:47:26.639Z,48.07
2022-10-31T06:48:28.174Z,48.04
2022-10-31T06:49:29.771Z,48.15
2022-10-31T06:50:31.297Z,48.10
2022-10-31T06:51:32.810Z,48.18
2022-10-31T06:52:34.321Z,48.20
2022-10-31T06:53:35.847Z,48.05
2022-10-31T06:54:37.346Z,48.36
2022-10-31T06:55:38.871Z,47.95
2022-10-31T06:56:40.378Z,48.38
2022-10-31T06:57:41.981Z,48.03
2022-10-31T06:58:43.719Z,48.27
2022-10-31T06:59:45.277Z,48.22
2022-10-31T07:00:46.875Z,48.25
2022-10-31T07:01:48.479Z,48.15
2022-10-31T07:03:01.965Z,48.60
2022-10-31T07:04:03.580Z,48.46
2022-10-31T07:05:05.459Z,48.43
2022-10-31T07:06:07.011Z,48.58
2022-10-31T07:07:08.923Z,48.41
2022-10-31T07:08:13.201Z,48.54
2022-10-31T07:09:14.712Z,48.76
2022-10-31T07:10:16.466Z,48.64
2022-10-31T07:11:18.197Z,48.71
2022-10-31T07:12:19.745Z,48.48
2022-10-31T07:13:26.638Z,48.64
2022-10-31T07:14:28.148Z,48.69
2022-10-31T07:15:33.621Z,48.61
2022-10-31T07:16:35.129Z,48.82
2022-10-31T07:17:36.665Z,48.70
2022-10-31T07:18:38.324Z,48.84
2022-10-31T07:19:39.845Z,48.73
2022-10-31T07:20:41.424Z,48.76
2022-10-31T07:21:42.974Z,48.79
2022-10-31T07:22:50.446Z,48.83
2022-10-31T07:23:52.293Z,48.74
2022-10-31T07:24:53.837Z,48.99
2022-10-31T07:25:57.190Z,49.11
2022-10-31T07:28:01.600Z,49.01
2022-10-31T07:29:03.432Z,48.79
2022-10-31T07:30:06.526Z,48.77
2022-10-31T07:31:08.097Z,48.85
2022-10-31T07:32:09.584Z,48.94
2022-10-31T07:33:11.151Z,48.99
2022-10-31T07:34:12.726Z,48.75
2022-10-31T07:35:17.374Z,49.05
2022-10-31T07:36:18.906Z,48.86
2022-10-31T07:37:20.408Z,49.12
2022-10-31T07:38:21.957Z,48.84
2022-10-31T07:39:23.594Z,48.93
2022-10-31T07:40:25.830Z,48.79
2022-10-31T07:41:27.452Z,49.06
2022-10-31T07:42:28.962Z,49.09
2022-10-31T07:43:30.528Z,48.92
2022-10-31T07:44:32.069Z,48.86
2022-10-31T07:45:33.643Z,49.03
2022-10-31T07:46:35.200Z,49.20
2022-10-31T07:47:51.151Z,49.04
2022-10-31T07:48:52.697Z,48.87
2022-10-31T07:49:54.238Z,49.25
2022-10-31T07:50:55.975Z,49.25
2022-10-31T07:51:57.469Z,49.02
2022-10-31T07:53:09.576Z,49.29
2022-10-31T07:54:11.083Z,49.17
2022-10-31T07:55:13.058Z,48.92
2022-10-31T07:56:14.621Z,48.95
2022-10-31T07:57:17.078Z,49.11
2022-10-31T07:58:20.723Z,49.11
2022-10-31T07:59:22.520Z,48.81
2022-10-31T08:00:24.297Z,49.08
2022-10-31T08:01:25.888Z,48.89
2022-10-31T08:02:27.590Z,48.99
2022-10-31T08:03:29.114Z,49.15
2022-10-31T08:04:30.628Z,48.94
2022-10-31T08:05:33.446Z,48.90
2022-10-31T08:06:35.437Z,49.01
2022-10-31T08:07:38.639Z,48.95
2022-10-31T08:08:40.227Z,48.86
2022-10-31T08:09:41.714Z,48.99
2022-10-31T08:10:43.583Z,49.00
2022-10-31T08:11:45.105Z,49.13
2022-10-31T08:12:46.777Z,48.79
2022-10-31T08:13:48.304Z,48.98
2022-10-31T08:14:50.906Z,49.02
2022-10-31T08:15:54.593Z,49.10
2022-10-31T08:16:56.121Z,48.97
2022-10-31T08:17:58.245Z,49.03
2022-10-31T08:18:59.954Z,49.04
2022-10-31T08:20:01.605Z,49.12
2022-10-31T08:21:03.256Z,48.80
2022-10-31T08:22:04.835Z,49.12
2022-10-31T08:23:06.843Z,49.08
2022-10-31T08:24:08.407Z,48.80
2022-10-31T08:25:10.059Z,48.83
2022-10-31T08:26:11.571Z,48.82
2022-10-31T08:27:13.068Z,48.67
2022-10-31T08:28:15.620Z,48.66
2022-10-31T08:29:17.139Z,48.87
2022-10-31T08:30:19.756Z,48.75
2022-10-31T08:31:22.123Z,49.03
2022-10-31T08:32:23.845Z,48.98
2022-10-31T08:33:25.621Z,48.84
2022-10-31T08:34:27.192Z,48.90
2022-10-31T08:35:29.357Z,49.01
2022-10-31T08:36:31.025Z,48.84
2022-10-31T08:37:32.548Z,49.14
2022-10-31T08:38:34.067Z,49.12
2022-10-31T08:39:35.578Z,48.83
2022-10-31T08:40:37.986Z,49.07
2022-10-31T08:41:39.567Z,49.15
2022-10-31T08:42:41.080Z,48.99
2022-10-31T08:43:42.644Z,48.72
2022-10-31T08:44:44.185Z,49.08
2022-10-31T08:45:49.274Z,49.02
2022-10-31T08:46:50.783Z,48.73
2022-10-31T08:47:52.362Z,48.66
2022-10-31T08:48:53.954Z,48.74
2022-10-31T08:49:55.488Z,48.69
2022-10-31T08:50:59.121Z,48.72
2022-10-31T08:52:00.672Z,48.92
2022-10-31T08:53:07.775Z,48.69
2022-10-31T08:54:09.349Z,49.07
2022-10-31T08:55:10.878Z,48.72
2022-10-31T08:56:12.374Z,48.63
2022-10-31T08:57:13.914Z,48.97
2022-10-31T08:58:18.185Z,49.05
2022-10-31T08:59:19.683Z,48.62
2022-10-31T09:00:21.206Z,48.84
2022-10-31T09:01:22.800Z,48.70
2022-10-31T09:02:24.517Z,49.01
2022-10-31T09:03:29.132Z,48.65
2022-10-31T09:04:30.624Z,48.68
2022-10-31T09:05:33.078Z,48.87
2022-10-31T09:06:34.654Z,48.92
2022-10-31T09:07:36.194Z,48.64
2022-10-31T09:08:38.053Z,48.79
2022-10-31T09:09:39.576Z,48.89
2022-10-31T09:10:41.564Z,49.02
2022-10-31T09:11:43.060Z,48.69
2022-10-31T09:12:44.564Z,48.59
2022-10-31T09:13:46.082Z,48.92
2022-10-31T09:14:48.232Z,49.01
2022-10-31T09:15:50.825Z,48.83
2022-10-31T09:16:52.400Z,48.64
2022-10-31T09:17:54.466Z,48.91
2022-10-31T09:18:56.032Z,49.06
2022-10-31T09:19:57.541Z,48.96
2022-10-31T09:21:01.294Z,49.17
2022-10-31T09:22:02.809Z,48.91
2022-10-31T09:23:13.057Z,49.10
2022-10-31T09:24:14.631Z,48.74
2022-10-31T09:25:16.225Z,48.82
2022-10-31T09:26:17.746Z,48.63
2022-10-31T09:27:19.280Z,48.68
2022-10-31T09:28:23.577Z,48.84
2022-10-31T09:29:25.181Z,48.60
2022-10-31T09:30:29.099Z,48.68
2022-10-31T09:31:30.697Z,48.65
2022-10-31T09:32:32.209Z,48.83
2022-10-31T09:33:33.700Z,48.60
2022-10-31T09:34:35.289Z,48.78
2022-10-31T09:35:36.913Z,48.68
2022-10-31T09:36:39.525Z,48.85
2022-10-31T09:37:41.028Z,48.60
2022-10-31T09:38:42.520Z,48.58
2022-10-31T09:39:44.050Z,48.90
2022-10-31T09:41:04.440Z,48.76
2022-10-31T09:42:05.946Z,48.74
2022-10-31T09:43:36.657Z,48.67
2022-10-31T09:44:48.682Z,48.54
2022-10-31T09:46:08.932Z,48.44
2022-10-31T09:47:22.548Z,48.76
2022-10-31T09:48:38.781Z,48.75
2022-10-31T09:49:42.980Z,48.70
2022-10-31T09:50:54.946Z,48.62
2022-10-31T09:52:01.096Z,48.40
2022-10-31T09:53:38.399Z,48.64
2022-10-31T09:54:47.247Z,48.46
2022-10-31T09:55:50.726Z,48.60
2022-10-31T09:56:52.704Z,48.60
2022-10-31T09:57:54.906Z,48.32
2022-10-31T09:59:01.492Z,48.31
2022-10-31T10:00:06.489Z,48.36
2022-10-31T10:01:23.259Z,48.51
2022-10-31T10:02:38.576Z,48.45
2022-10-31T10:03:46.458Z,48.29
2022-10-31T10:04:58.072Z,48.52
2022-10-31T10:06:10.360Z,48.33
2022-10-31T10:07:20.076Z,48.59
2022-10-31T10:08:26.611Z,48.46
2022-10-31T10:09:28.228Z,48.08
2022-10-31T10:10:56.414Z,48.34
2022-10-31T10:12:37.021Z,48.19
2022-10-31T10:14:07.173Z,48.37
2022-10-31T10:15:22.919Z,48.45
2022-10-31T10:16:39.319Z,48.12
2022-10-31T10:17:53.146Z,48.26
2022-10-31T10:19:12.675Z,48.38
2022-10-31T10:20:24.273Z,48.12
2022-10-31T10:21:50.328Z,48.49
2022-10-31T10:23:09.900Z,48.31
2022-10-31T10:24:32.940Z,48.18
2022-10-31T10:25:42.266Z,48.27
2022-10-31T10:26:54.476Z,48.03
2022-10-31T10:28:05.742Z,48.22
2022-10-31T10:29:28.389Z,47.99
2022-10-31T10:31:15.752Z,47.89
2022-10-31T10:32:25.241Z,47.93
2022-10-31T10:33:36.382Z,47.85
2022-10-31T10:34:45.462Z,48.09
2022-10-31T10:35:53.329Z,47.96
2022-10-31T10:37:27.498Z,47.93
2022-10-31T10:38:44.267Z,47.98
2022-10-31T10:39:51.337Z,47.68
2022-10-31T10:40:54.794Z,47.63
2022-10-31T10:42:20.702Z,47.86
2022-10-31T10:43:34.226Z,48.00
2022-10-31T10:44:59.504Z,47.87
2022-10-31T10:46:37.710Z,47.82
2022-10-31T10:47:52.469Z,47.66
2022-10-31T10:49:01.777Z,47.64
2022-10-31T10:50:10.476Z,47.83
2022-10-31T10:51:51.965Z,47.86
2022-10-31T10:53:32.557Z,47.77
2022-10-31T10:54:46.364Z,47.61
2022-10-31T10:55:59.304Z,47.36
2022-10-31T10:57:42.487Z,47.63
2022-10-31T10:58:44.152Z,47.36
2022-10-31T10:59:46.911Z,47.70
2022-10-31T11:00:49.020Z,47.72
2022-10-31T11:01:52.966Z,47.60
2022-10-31T11:02:56.253Z,47.66
2022-10-31T11:03:57.798Z,47.73
2022-10-31T11:05:02.437Z,47.73
2022-10-31T11:06:04.136Z,47.57
2022-10-31T11:07:12.744Z,47.69
2022-10-31T11:08:29.474Z,47.50
2022-10-31T11:09:31.386Z,47.44
2022-10-31T11:10:34.271Z,47.62
2022-10-31T11:11:35.839Z,47.50
2022-10-31T11:12:37.374Z,47.64
2022-10-31T11:13:42.853Z,47.46
2022-10-31T11:15:00.262Z,47.46
2022-10-31T11:16:09.029Z,47.68
2022-10-31T11:17:20.422Z,47.52
2022-10-31T11:19:32.704Z,47.37
2022-10-31T11:20:37.118Z,47.49
2022-10-31T11:21:38.951Z,47.28
2022-10-31T11:22:45.437Z,47.38
2022-10-31T11:23:47.024Z,47.61
2022-10-31T11:24:48.638Z,47.44
2022-10-31T11:26:02.083Z,47.75
2022-10-31T11:27:23.942Z,47.46
2022-10-31T11:28:27.653Z,47.48
2022-10-31T11:29:29.307Z,47.81
2022-10-31T11:30:36.297Z,47.46
2022-10-31T11:31:38.006Z,47.51
2022-10-31T11:32:49.505Z,47.81
2022-10-31T11:34:04.265Z,47.78
2022-10-31T11:35:17.459Z,47.74
2022-10-31T11:36:31.022Z,47.84
2022-10-31T11:37:41.549Z,47.57
2022-10-31T11:38:44.951Z,47.58
2022-10-31T11:39:54.377Z,47.61
2022-10-31T11:41:13.316Z,47.65
2022-10-31T11:42:14.885Z,47.48
2022-10-31T11:43:19.298Z,47.52
2022-10-31T11:44:26.610Z,47.84
2022-10-31T11:45:34.871Z,47.51
2022-10-31T11:46:43.981Z,47.65
2022-10-31T11:47:55.245Z,47.68
2022-10-31T11:49:00.193Z,47.51
2022-10-31T11:50:12.620Z,47.72
2022-10-31T11:51:21.160Z,47.54
2022-10-31T11:52:28.725Z,47.64
2022-10-31T11:53:34.158Z,47.53
2022-10-31T11:54:45.864Z,47.80
2022-10-31T11:55:48.108Z,47.72
2022-10-31T11:56:49.860Z,47.64
2022-10-31T11:57:53.308Z,47.77
2022-10-31T11:59:00.808Z,47.55
2022-10-31T12:00:05.546Z,47.64
2022-10-31T12:01:10.430Z,47.55
2022-10-31T12:02:20.451Z,47.73
2022-10-31T12:03:25.017Z,47.78
2022-10-31T12:04:38.546Z,47.41
2022-10-31T12:05:42.309Z,47.39
2022-10-31T12:06:48.418Z,47.55
2022-10-31T12:07:50.714Z,47.60
2022-10-31T12:08:52.284Z,47.44
2022-10-31T12:09:53.851Z,47.71
2022-10-31T12:11:40.501Z,47.50
2022-10-31T12:13:03.585Z,47.69
2022-10-31T12:14:23.206Z,47.76
2022-10-31T12:15:24.793Z,47.52
2022-10-31T12:16:43.456Z,47.52
2022-10-31T12:17:45.013Z,47.53
2022-10-31T12:19:36.087Z,47.46
2022-10-31T12:20:58.874Z,47.48
2022-10-31T12:22:10.307Z,47.38
2022-10-31T12:23:34.076Z,47.40
2022-10-31T12:24:58.677Z,47.49
2022-10-31T12:26:09.245Z,47.60
2022-10-31T12:27:22.849Z,47.46
2022-10-31T12:28:59.970Z,47.42
2022-10-31T12:30:21.837Z,47.34
2022-10-31T12:31:48.257Z,47.41
2022-10-31T12:33:16.826Z,47.33
2022-10-31T12:34:33.673Z,47.45
2022-10-31T12:35:35.249Z,47.43
2022-10-31T12:36:44.978Z,47.46
2022-10-31T12:38:13.561Z,47.48
2022-10-31T12:39:25.913Z,47.07
2022-10-31T12:40:54.693Z,47.45
2022-10-31T12:42:09.450Z,47.39
2022-10-31T12:43:21.930Z,47.25
2022-10-31T12:44:41.607Z,47.27
2022-10-31T12:45:58.111Z,47.30
2022-10-31T12:47:31.816Z,47.21
2022-10-31T12:48:33.271Z,47.13
2022-10-31T12:49:40.867Z,47.23
2022-10-31T12:50:45.058Z,47.04
2022-10-31T12:51:53.715Z,47.17
2022-10-31T12:53:10.258Z,46.88
2022-10-31T12:54:23.798Z,47.30
2022-10-31T12:55:55.914Z,47.19
2022-10-31T12:57:18.052Z,47.11
2022-10-31T12:58:22.635Z,47.10
2022-10-31T12:59:39.101Z,47.04
2022-10-31T13:00:45.106Z,46.99
2022-10-31T13:01:52.814Z,47.07
2022-10-31T13:03:06.220Z,46.99
2022-10-31T13:04:45.929Z,47.05
2022-10-31T13:05:52.892Z,46.82
2022-10-31T13:07:03.078Z,47.00
2022-10-31T13:08:10.696Z,46.98
2022-10-31T13:09:33.920Z,46.98
2022-10-31T13:10:41.840Z,46.78
2022-10-31T13:11:52.999Z,46.81
2022-10-31T13:13:02.181Z,46.84
2022-10-31T13:14:10.525Z,46.96
2022-10-31T13:15:36.076Z,46.74
2022-10-31T13:16:44.946Z,46.81
2022-10-31T13:17:51.533Z,46.93
2022-10-31T13:19:02.903Z,46.84
2022-10-31T13:20:12.668Z,46.93
2022-10-31T13:21:23.791Z,46.80
2022-10-31T13:22:31.699Z,46.67
2022-10-31T13:23:51.999Z,46.79
2022-10-31T13:25:02.811Z,46.87
2022-10-31T13:26:29.582Z,46.63
2022-10-31T13:27:41.621Z,46.77
2022-10-31T13:30:05.693Z,46.57
2022-10-31T13:31:07.371Z,46.59
2022-10-31T13:32:09.212Z,46.50
2022-10-31T13:33:26.458Z,46.78
2022-10-31T13:34:43.273Z,46.85
2022-10-31T13:36:05.982Z,46.54
2022-10-31T13:37:25.525Z,46.82
2022-10-31T13:38:57.614Z,46.85
2022-10-31T13:40:01.831Z,46.59
2022-10-31T13:41:12.405Z,46.74
2022-10-31T13:42:20.404Z,46.75
2022-10-31T13:43:28.545Z,46.66
2022-10-31T13:44:35.892Z,46.51
2022-10-31T13:45:50.696Z,46.65
2022-10-31T13:46:53.864Z,46.75
2022-10-31T13:48:19.062Z,46.68
2022-10-31T13:49:40.838Z,46.65
2022-10-31T13:50:44.235Z,46.46
2022-10-31T13:51:45.761Z,46.80
2022-10-31T13:52:47.456Z,46.48
2022-10-31T13:53:51.833Z,46.81
2022-10-31T13:54:57.496Z,46.63
2022-10-31T13:56:11.003Z,46.56
2022-10-31T13:57:20.246Z,46.59
2022-10-31T13:58:27.889Z,46.73
2022-10-31T13:59:32.904Z,46.77
2022-10-31T14:00:36.086Z,46.71
2022-10-31T14:01:47.120Z,46.74
2022-10-31T14:02:51.855Z,46.63
2022-10-31T14:04:22.168Z,46.49
2022-10-31T14:05:30.835Z,46.56
2022-10-31T14:06:50.351Z,46.56
2022-10-31T14:07:54.369Z,46.77
2022-10-31T14:08:55.994Z,46.38
2022-10-31T14:10:07.224Z,46.77
2022-10-31T14:11:17.205Z,46.64
2022-10-31T14:12:31.848Z,46.56
2022-10-31T14:13:45.636Z,46.65
2022-10-31T14:14:51.225Z,46.54
2022-10-31T14:15:56.757Z,46.49
2022-10-31T14:16:59.519Z,46.57
2022-10-31T14:18:23.192Z,46.66
2022-10-31T14:19:25.739Z,46.33
2022-10-31T14:20:44.799Z,46.55
2022-10-31T14:21:50.636Z,46.76
2022-10-31T14:22:52.580Z,46.54